sensor_id;sensor_type;location;lat;lon;timestamp;P1;durP1;ratioP1;P2;durP2;ratioP2
34988;SDS011;21192;40.182;44.516;2023-02-22T00:00:58;8.82;;;3.40;;
34988;SDS011;21192;40.182;44.516;2023-02-22T00:03:27;7.40;;;3.15;;
34988;SDS011;21192;40.182;44.516;2023-02-22T00:06:00;8.98;;;3.40;;
34988;SDS011;21192;40.182;44.516;2023-02-22T00:08:29;12.80;;;3.72;;
34988;SDS011;21192;40.182;44.516;2023-02-22T00:10:58;7.53;;;3.22;;
34988;SDS011;21192;40.182;44.516;2023-02-22T00:13:34;12.52;;;3.55;;
34988;SDS011;21192;40.182;44.516;2023-02-22T00:16:01;6.57;;;3.58;;
34988;SDS011;21192;40.182;44.516;2023-02-22T00:18:28;9.30;;;3.40;;
34988;SDS011;21192;40.182;44.516;2023-02-22T00:20:55;10.10;;;3.70;;
34988;SDS011;21192;40.182;44.516;2023-02-22T00:23:25;8.57;;;3.65;;
34988;SDS011;21192;40.182;44.516;2023-02-22T00:25:52;8.60;;;3.40;;
34988;SDS011;21192;40.182;44.516;2023-02-22T00:28:18;10.07;;;3.80;;
34988;SDS011;21192;40.182;44.516;2023-02-22T00:30:45;10.18;;;3.45;;
34988;SDS011;21192;40.182;44.516;2023-02-22T00:33:13;13.38;;;3.78;;
34988;SDS011;21192;40.182;44.516;2023-02-22T00:35:40;7.47;;;3.35;;
34988;SDS011;21192;40.182;44.516;2023-02-22T00:38:10;11.70;;;3.72;;
34988;SDS011;21192;40.182;44.516;2023-02-22T00:40:37;9.43;;;3.30;;
34988;SDS011;21192;40.182;44.516;2023-02-22T00:43:04;6.22;;;3.38;;
34988;SDS011;21192;40.182;44.516;2023-02-22T00:45:31;9.85;;;3.58;;
34988;SDS011;21192;40.182;44.516;2023-02-22T00:47:59;7.95;;;3.63;;
34988;SDS011;21192;40.182;44.516;2023-02-22T00:50:26;9.15;;;3.85;;
34988;SDS011;21192;40.182;44.516;2023-02-22T00:52:53;8.20;;;3.58;;
34988;SDS011;21192;40.182;44.516;2023-02-22T00:55:27;8.88;;;3.33;;
34988;SDS011;21192;40.182;44.516;2023-02-22T00:57:58;10.95;;;3.40;;
34988;SDS011;21192;40.182;44.516;2023-02-22T01:00:33;8.60;;;3.22;;
34988;SDS011;21192;40.182;44.516;2023-02-22T01:03:01;12.35;;;3.20;;
34988;SDS011;21192;40.182;44.516;2023-02-22T01:05:29;6.78;;;3.50;;
34988;SDS011;21192;40.182;44.516;2023-02-22T01:07:56;6.78;;;3.08;;
34988;SDS011;21192;40.182;44.516;2023-02-22T01:10:25;10.15;;;3.22;;
34988;SDS011;21192;40.182;44.516;2023-02-22T01:12:52;7.82;;;3.97;;
34988;SDS011;21192;40.182;44.516;2023-02-22T01:15:20;8.30;;;3.83;;
34988;SDS011;21192;40.182;44.516;2023-02-22T01:17:48;10.82;;;3.45;;
34988;SDS011;21192;40.182;44.516;2023-02-22T01:20:15;12.32;;;3.17;;
34988;SDS011;21192;40.182;44.516;2023-02-22T01:22:43;9.73;;;3.20;;
34988;SDS011;21192;40.182;44.516;2023-02-22T01:25:11;13.70;;;3.58;;
34988;SDS011;21192;40.182;44.516;2023-02-22T01:27:40;13.10;;;3.67;;
34988;SDS011;21192;40.182;44.516;2023-02-22T01:30:06;10.95;;;3.10;;
34988;SDS011;21192;40.182;44.516;2023-02-22T01:32:36;12.27;;;3.78;;
34988;SDS011;21192;40.182;44.516;2023-02-22T01:35:04;10.55;;;3.22;;
34988;SDS011;21192;40.182;44.516;2023-02-22T01:37:35;15.02;;;3.15;;
34988;SDS011;21192;40.182;44.516;2023-02-22T01:40:02;11.27;;;3.20;;
34988;SDS011;21192;40.182;44.516;2023-02-22T01:42:29;13.98;;;3.97;;
34988;SDS011;21192;40.182;44.516;2023-02-22T01:47:55;10.73;;;3.35;;
34988;SDS011;21192;40.182;44.516;2023-02-22T01:50:24;13.23;;;3.72;;
34988;SDS011;21192;40.182;44.516;2023-02-22T01:52:50;11.98;;;3.53;;
34988;SDS011;21192;40.182;44.516;2023-02-22T01:55:16;8.75;;;3.38;;
34988;SDS011;21192;40.182;44.516;2023-02-22T01:57:43;10.20;;;3.35;;
34988;SDS011;21192;40.182;44.516;2023-02-22T02:00:11;18.25;;;3.75;;
34988;SDS011;21192;40.182;44.516;2023-02-22T02:02:42;10.40;;;3.40;;
34988;SDS011;21192;40.182;44.516;2023-02-22T02:05:11;9.20;;;3.17;;
34988;SDS011;21192;40.182;44.516;2023-02-22T02:07:38;15.73;;;3.78;;
34988;SDS011;21192;40.182;44.516;2023-02-22T02:10:08;15.63;;;4.35;;
34988;SDS011;21192;40.182;44.516;2023-02-22T02:12:38;9.85;;;3.05;;
34988;SDS011;21192;40.182;44.516;2023-02-22T02:15:20;12.82;;;3.85;;
34988;SDS011;21192;40.182;44.516;2023-02-22T02:17:47;7.75;;;3.05;;
34988;SDS011;21192;40.182;44.516;2023-02-22T02:34:27;8.90;;;3.63;;
34988;SDS011;21192;40.182;44.516;2023-02-22T02:37:02;12.55;;;3.88;;
34988;SDS011;21192;40.182;44.516;2023-02-22T02:39:37;8.27;;;3.38;;
34988;SDS011;21192;40.182;44.516;2023-02-22T02:42:11;7.85;;;3.25;;
34988;SDS011;21192;40.182;44.516;2023-02-22T02:47:46;10.25;;;3.17;;
34988;SDS011;21192;40.182;44.516;2023-02-22T02:50:10;7.13;;;3.15;;
34988;SDS011;21192;40.182;44.516;2023-02-22T02:53:01;8.52;;;2.92;;
34988;SDS011;21192;40.182;44.516;2023-02-22T02:55:31;9.60;;;3.78;;
34988;SDS011;21192;40.182;44.516;2023-02-22T02:58:00;11.90;;;4.10;;
34988;SDS011;21192;40.182;44.516;2023-02-22T03:00:29;6.95;;;3.03;;
34988;SDS011;21192;40.182;44.516;2023-02-22T03:06:15;11.88;;;2.95;;
34988;SDS011;21192;40.182;44.516;2023-02-22T03:12:06;11.00;;;3.20;;
34988;SDS011;21192;40.182;44.516;2023-02-22T03:20:31;8.98;;;3.20;;
34988;SDS011;21192;40.182;44.516;2023-02-22T03:23:16;14.73;;;3.22;;
34988;SDS011;21192;40.182;44.516;2023-02-22T03:25:53;10.98;;;3.83;;
34988;SDS011;21192;40.182;44.516;2023-02-22T03:28:26;9.63;;;3.35;;
34988;SDS011;21192;40.182;44.516;2023-02-22T03:30:58;13.65;;;3.22;;
34988;SDS011;21192;40.182;44.516;2023-02-22T03:33:40;14.05;;;4.13;;
34988;SDS011;21192;40.182;44.516;2023-02-22T03:36:16;9.18;;;3.17;;
34988;SDS011;21192;40.182;44.516;2023-02-22T03:38:49;10.25;;;4.03;;
34988;SDS011;21192;40.182;44.516;2023-02-22T03:41:20;11.40;;;3.40;;
34988;SDS011;21192;40.182;44.516;2023-02-22T03:43:49;9.18;;;3.47;;
34988;SDS011;21192;40.182;44.516;2023-02-22T03:46:19;12.10;;;3.55;;
34988;SDS011;21192;40.182;44.516;2023-02-22T03:48:52;11.48;;;3.45;;
34988;SDS011;21192;40.182;44.516;2023-02-22T03:51:38;12.98;;;3.63;;
34988;SDS011;21192;40.182;44.516;2023-02-22T03:54:04;16.05;;;3.67;;
34988;SDS011;21192;40.182;44.516;2023-02-22T03:56:36;15.20;;;3.80;;
34988;SDS011;21192;40.182;44.516;2023-02-22T03:59:11;20.45;;;4.55;;
34988;SDS011;21192;40.182;44.516;2023-02-22T04:01:37;18.52;;;4.30;;
34988;SDS011;21192;40.182;44.516;2023-02-22T04:04:03;20.05;;;3.72;;
34988;SDS011;21192;40.182;44.516;2023-02-22T04:06:29;18.95;;;3.63;;
34988;SDS011;21192;40.182;44.516;2023-02-22T04:08:55;13.35;;;3.38;;
34988;SDS011;21192;40.182;44.516;2023-02-22T04:11:21;31.05;;;4.40;;
34988;SDS011;21192;40.182;44.516;2023-02-22T04:13:47;21.63;;;4.72;;
34988;SDS011;21192;40.182;44.516;2023-02-22T04:16:13;23.63;;;4.85;;
34988;SDS011;21192;40.182;44.516;2023-02-22T04:18:39;18.02;;;3.65;;
34988;SDS011;21192;40.182;44.516;2023-02-22T04:21:04;29.08;;;5.28;;
34988;SDS011;21192;40.182;44.516;2023-02-22T04:23:30;29.20;;;4.93;;
34988;SDS011;21192;40.182;44.516;2023-02-22T04:25:56;24.55;;;4.22;;
34988;SDS011;21192;40.182;44.516;2023-02-22T04:28:22;20.70;;;4.40;;
34988;SDS011;21192;40.182;44.516;2023-02-22T04:30:48;21.88;;;4.20;;
34988;SDS011;21192;40.182;44.516;2023-02-22T04:33:14;17.50;;;4.05;;
34988;SDS011;21192;40.182;44.516;2023-02-22T04:35:40;19.00;;;4.28;;
34988;SDS011;21192;40.182;44.516;2023-02-22T04:38:06;25.55;;;4.20;;
34988;SDS011;21192;40.182;44.516;2023-02-22T04:40:33;20.42;;;4.95;;
34988;SDS011;21192;40.182;44.516;2023-02-22T04:42:59;14.38;;;4.20;;
34988;SDS011;21192;40.182;44.516;2023-02-22T04:45:25;22.23;;;4.30;;
34988;SDS011;21192;40.182;44.516;2023-02-22T04:47:51;16.02;;;4.00;;
34988;SDS011;21192;40.182;44.516;2023-02-22T04:50:17;20.50;;;4.20;;
34988;SDS011;21192;40.182;44.516;2023-02-22T04:52:43;17.15;;;4.75;;
34988;SDS011;21192;40.182;44.516;2023-02-22T04:55:09;16.50;;;4.25;;
34988;SDS011;21192;40.182;44.516;2023-02-22T04:57:35;13.77;;;4.20;;
34988;SDS011;21192;40.182;44.516;2023-02-22T05:00:02;20.42;;;4.60;;
34988;SDS011;21192;40.182;44.516;2023-02-22T05:02:29;14.40;;;4.13;;
34988;SDS011;21192;40.182;44.516;2023-02-22T05:04:55;18.60;;;4.55;;
34988;SDS011;21192;40.182;44.516;2023-02-22T05:07:21;19.02;;;3.83;;
34988;SDS011;21192;40.182;44.516;2023-02-22T05:09:47;25.40;;;4.97;;
34988;SDS011;21192;40.182;44.516;2023-02-22T05:12:13;18.00;;;4.30;;
34988;SDS011;21192;40.182;44.516;2023-02-22T05:14:39;16.83;;;4.85;;
34988;SDS011;21192;40.182;44.516;2023-02-22T05:17:05;18.33;;;5.47;;
34988;SDS011;21192;40.182;44.516;2023-02-22T05:19:31;21.45;;;4.78;;
34988;SDS011;21192;40.182;44.516;2023-02-22T05:21:57;15.50;;;5.18;;
34988;SDS011;21192;40.182;44.516;2023-02-22T05:24:24;14.63;;;4.15;;
34988;SDS011;21192;40.182;44.516;2023-02-22T05:26:50;26.13;;;6.10;;
34988;SDS011;21192;40.182;44.516;2023-02-22T05:29:17;26.00;;;4.80;;
34988;SDS011;21192;40.182;44.516;2023-02-22T05:31:43;12.48;;;4.80;;
34988;SDS011;21192;40.182;44.516;2023-02-22T05:34:09;16.98;;;5.18;;
34988;SDS011;21192;40.182;44.516;2023-02-22T05:36:35;17.70;;;4.30;;
34988;SDS011;21192;40.182;44.516;2023-02-22T05:39:01;14.45;;;3.88;;
34988;SDS011;21192;40.182;44.516;2023-02-22T05:41:27;25.38;;;4.05;;
34988;SDS011;21192;40.182;44.516;2023-02-22T05:43:53;26.98;;;5.43;;
34988;SDS011;21192;40.182;44.516;2023-02-22T05:46:18;15.68;;;3.97;;
34988;SDS011;21192;40.182;44.516;2023-02-22T05:48:44;18.73;;;5.32;;
34988;SDS011;21192;40.182;44.516;2023-02-22T05:51:10;22.40;;;5.13;;
34988;SDS011;21192;40.182;44.516;2023-02-22T05:53:36;15.82;;;5.47;;
34988;SDS011;21192;40.182;44.516;2023-02-22T05:56:02;13.05;;;4.45;;
34988;SDS011;21192;40.182;44.516;2023-02-22T05:58:28;22.02;;;4.38;;
34988;SDS011;21192;40.182;44.516;2023-02-22T06:00:54;12.80;;;4.38;;
34988;SDS011;21192;40.182;44.516;2023-02-22T06:03:20;10.23;;;4.18;;
34988;SDS011;21192;40.182;44.516;2023-02-22T06:05:46;28.60;;;5.47;;
34988;SDS011;21192;40.182;44.516;2023-02-22T06:08:11;18.55;;;5.10;;
34988;SDS011;21192;40.182;44.516;2023-02-22T06:10:37;20.85;;;4.75;;
34988;SDS011;21192;40.182;44.516;2023-02-22T06:13:03;19.92;;;4.63;;
34988;SDS011;21192;40.182;44.516;2023-02-22T06:15:29;20.25;;;4.90;;
34988;SDS011;21192;40.182;44.516;2023-02-22T06:17:56;35.05;;;7.63;;
34988;SDS011;21192;40.182;44.516;2023-02-22T06:20:23;35.97;;;7.65;;
34988;SDS011;21192;40.182;44.516;2023-02-22T06:22:51;19.42;;;5.28;;
34988;SDS011;21192;40.182;44.516;2023-02-22T06:25:23;19.20;;;5.80;;
34988;SDS011;21192;40.182;44.516;2023-02-22T06:27:51;16.90;;;5.72;;
34988;SDS011;21192;40.182;44.516;2023-02-22T06:30:18;18.63;;;5.45;;
34988;SDS011;21192;40.182;44.516;2023-02-22T06:32:44;16.23;;;4.70;;
34988;SDS011;21192;40.182;44.516;2023-02-22T06:35:10;24.70;;;5.75;;
34988;SDS011;21192;40.182;44.516;2023-02-22T06:37:36;22.98;;;5.85;;
34988;SDS011;21192;40.182;44.516;2023-02-22T06:40:03;19.73;;;6.00;;
34988;SDS011;21192;40.182;44.516;2023-02-22T06:42:29;17.98;;;5.47;;
34988;SDS011;21192;40.182;44.516;2023-02-22T06:44:55;17.42;;;5.13;;
34988;SDS011;21192;40.182;44.516;2023-02-22T06:47:21;21.45;;;5.10;;
34988;SDS011;21192;40.182;44.516;2023-02-22T06:49:53;15.55;;;5.13;;
34988;SDS011;21192;40.182;44.516;2023-02-22T06:52:21;19.80;;;5.72;;
34988;SDS011;21192;40.182;44.516;2023-02-22T06:54:48;21.00;;;6.05;;
34988;SDS011;21192;40.182;44.516;2023-02-22T06:57:15;23.85;;;5.40;;
34988;SDS011;21192;40.182;44.516;2023-02-22T06:59:41;34.15;;;6.80;;
34988;SDS011;21192;40.182;44.516;2023-02-22T07:02:08;23.15;;;5.45;;
34988;SDS011;21192;40.182;44.516;2023-02-22T07:04:35;31.27;;;5.22;;
34988;SDS011;21192;40.182;44.516;2023-02-22T07:07:01;23.83;;;6.05;;
34988;SDS011;21192;40.182;44.516;2023-02-22T07:09:27;22.38;;;5.15;;
34988;SDS011;21192;40.182;44.516;2023-02-22T07:11:53;23.60;;;6.00;;
34988;SDS011;21192;40.182;44.516;2023-02-22T07:14:20;31.63;;;7.15;;
34988;SDS011;21192;40.182;44.516;2023-02-22T07:16:46;26.83;;;5.68;;
34988;SDS011;21192;40.182;44.516;2023-02-22T07:19:12;33.65;;;7.85;;
34988;SDS011;21192;40.182;44.516;2023-02-22T07:21:38;28.88;;;6.15;;
34988;SDS011;21192;40.182;44.516;2023-02-22T07:24:04;35.88;;;6.15;;
34988;SDS011;21192;40.182;44.516;2023-02-22T07:26:30;40.67;;;8.77;;
34988;SDS011;21192;40.182;44.516;2023-02-22T07:29:01;33.47;;;7.32;;
34988;SDS011;21192;40.182;44.516;2023-02-22T07:31:27;47.45;;;16.77;;
34988;SDS011;21192;40.182;44.516;2023-02-22T07:33:58;60.35;;;11.90;;
34988;SDS011;21192;40.182;44.516;2023-02-22T07:36:24;53.03;;;10.43;;
34988;SDS011;21192;40.182;44.516;2023-02-22T07:38:50;37.83;;;8.55;;
34988;SDS011;21192;40.182;44.516;2023-02-22T07:41:15;40.90;;;8.07;;
34988;SDS011;21192;40.182;44.516;2023-02-22T07:43:41;35.92;;;6.68;;
34988;SDS011;21192;40.182;44.516;2023-02-22T07:46:07;29.85;;;6.50;;
34988;SDS011;21192;40.182;44.516;2023-02-22T07:48:33;33.78;;;7.32;;
34988;SDS011;21192;40.182;44.516;2023-02-22T07:51:01;28.50;;;7.57;;
34988;SDS011;21192;40.182;44.516;2023-02-22T07:53:29;25.95;;;6.05;;
34988;SDS011;21192;40.182;44.516;2023-02-22T07:55:57;26.35;;;7.22;;
34988;SDS011;21192;40.182;44.516;2023-02-22T07:58:29;29.73;;;7.43;;
34988;SDS011;21192;40.182;44.516;2023-02-22T08:00:56;20.30;;;5.97;;
34988;SDS011;21192;40.182;44.516;2023-02-22T08:03:23;38.58;;;7.47;;
34988;SDS011;21192;40.182;44.516;2023-02-22T08:05:51;31.45;;;7.13;;
34988;SDS011;21192;40.182;44.516;2023-02-22T08:08:20;28.02;;;6.75;;
34988;SDS011;21192;40.182;44.516;2023-02-22T08:10:46;65.78;;;9.68;;
34988;SDS011;21192;40.182;44.516;2023-02-22T08:13:12;25.27;;;6.70;;
34988;SDS011;21192;40.182;44.516;2023-02-22T08:15:39;42.83;;;8.65;;
34988;SDS011;21192;40.182;44.516;2023-02-22T08:18:09;59.20;;;10.35;;
34988;SDS011;21192;40.182;44.516;2023-02-22T08:20:37;46.13;;;7.68;;
34988;SDS011;21192;40.182;44.516;2023-02-22T08:23:05;33.47;;;7.18;;
34988;SDS011;21192;40.182;44.516;2023-02-22T08:25:31;50.63;;;8.40;;
34988;SDS011;21192;40.182;44.516;2023-02-22T08:28:07;51.10;;;7.88;;
34988;SDS011;21192;40.182;44.516;2023-02-22T08:30:35;40.88;;;7.82;;
34988;SDS011;21192;40.182;44.516;2023-02-22T08:33:02;33.22;;;7.40;;
34988;SDS011;21192;40.182;44.516;2023-02-22T08:35:28;39.40;;;8.25;;
34988;SDS011;21192;40.182;44.516;2023-02-22T08:38:03;82.20;;;12.13;;
34988;SDS011;21192;40.182;44.516;2023-02-22T08:40:31;48.88;;;8.85;;
34988;SDS011;21192;40.182;44.516;2023-02-22T08:43:00;23.23;;;6.57;;
34988;SDS011;21192;40.182;44.516;2023-02-22T08:45:27;31.80;;;6.72;;
34988;SDS011;21192;40.182;44.516;2023-02-22T08:47:53;24.88;;;5.65;;
34988;SDS011;21192;40.182;44.516;2023-02-22T08:50:26;20.90;;;6.10;;
34988;SDS011;21192;40.182;44.516;2023-02-22T08:52:55;25.55;;;6.47;;
34988;SDS011;21192;40.182;44.516;2023-02-22T08:55:24;22.40;;;6.28;;
34988;SDS011;21192;40.182;44.516;2023-02-22T08:57:51;25.65;;;7.47;;
34988;SDS011;21192;40.182;44.516;2023-02-22T09:00:18;27.90;;;8.90;;
34988;SDS011;21192;40.182;44.516;2023-02-22T09:02:45;20.35;;;7.65;;
34988;SDS011;21192;40.182;44.516;2023-02-22T09:05:11;22.42;;;10.00;;
34988;SDS011;21192;40.182;44.516;2023-02-22T09:07:39;22.85;;;7.40;;
34988;SDS011;21192;40.182;44.516;2023-02-22T09:10:06;21.77;;;5.78;;
34988;SDS011;21192;40.182;44.516;2023-02-22T09:12:34;18.80;;;7.85;;
34988;SDS011;21192;40.182;44.516;2023-02-22T09:15:00;26.00;;;8.18;;
34988;SDS011;21192;40.182;44.516;2023-02-22T09:17:26;20.65;;;7.00;;
34988;SDS011;21192;40.182;44.516;2023-02-22T09:19:52;19.38;;;6.38;;
34988;SDS011;21192;40.182;44.516;2023-02-22T09:22:18;23.75;;;7.07;;
34988;SDS011;21192;40.182;44.516;2023-02-22T09:24:44;20.40;;;7.57;;
34988;SDS011;21192;40.182;44.516;2023-02-22T09:27:10;21.83;;;7.63;;
34988;SDS011;21192;40.182;44.516;2023-02-22T09:29:36;18.60;;;7.57;;
34988;SDS011;21192;40.182;44.516;2023-02-22T09:32:03;21.15;;;7.57;;
34988;SDS011;21192;40.182;44.516;2023-02-22T09:34:30;32.08;;;13.73;;
34988;SDS011;21192;40.182;44.516;2023-02-22T09:36:59;21.55;;;8.57;;
34988;SDS011;21192;40.182;44.516;2023-02-22T09:39:25;14.15;;;6.20;;
34988;SDS011;21192;40.182;44.516;2023-02-22T09:44:28;19.45;;;9.48;;
34988;SDS011;21192;40.182;44.516;2023-02-22T09:47:16;14.85;;;6.13;;
34988;SDS011;21192;40.182;44.516;2023-02-22T09:57:52;17.73;;;6.00;;
34988;SDS011;21192;40.182;44.516;2023-02-22T10:00:23;19.48;;;6.60;;
34988;SDS011;21192;40.182;44.516;2023-02-22T10:05:58;12.27;;;6.55;;
34988;SDS011;21192;40.182;44.516;2023-02-22T10:08:30;17.58;;;6.35;;
34988;SDS011;21192;40.182;44.516;2023-02-22T10:17:03;14.93;;;5.57;;
34988;SDS011;21192;40.182;44.516;2023-02-22T10:25:23;19.17;;;6.68;;
34988;SDS011;21192;40.182;44.516;2023-02-22T10:27:57;28.75;;;6.90;;
34988;SDS011;21192;40.182;44.516;2023-02-22T10:30:34;20.75;;;5.57;;
34988;SDS011;21192;40.182;44.516;2023-02-22T10:33:24;21.17;;;6.10;;
34988;SDS011;21192;40.182;44.516;2023-02-22T10:35:55;20.98;;;6.50;;
34988;SDS011;21192;40.182;44.516;2023-02-22T10:38:23;16.13;;;5.93;;
34988;SDS011;21192;40.182;44.516;2023-02-22T10:43:38;18.08;;;7.43;;
34988;SDS011;21192;40.182;44.516;2023-02-22T10:46:06;18.85;;;5.30;;
34988;SDS011;21192;40.182;44.516;2023-02-22T10:48:44;23.60;;;7.15;;
34988;SDS011;21192;40.182;44.516;2023-02-22T10:51:12;24.73;;;7.35;;
34988;SDS011;21192;40.182;44.516;2023-02-22T10:53:38;22.00;;;6.70;;
34988;SDS011;21192;40.182;44.516;2023-02-22T10:56:08;17.98;;;6.30;;
34988;SDS011;21192;40.182;44.516;2023-02-22T11:04:00;18.55;;;7.30;;
34988;SDS011;21192;40.182;44.516;2023-02-22T11:06:28;16.00;;;6.78;;
34988;SDS011;21192;40.182;44.516;2023-02-22T11:11:41;17.60;;;6.10;;
34988;SDS011;21192;40.182;44.516;2023-02-22T11:14:10;34.78;;;6.68;;
34988;SDS011;21192;40.182;44.516;2023-02-22T11:16:39;33.88;;;7.35;;
34988;SDS011;21192;40.182;44.516;2023-02-22T11:21:39;24.20;;;8.68;;
34988;SDS011;21192;40.182;44.516;2023-02-22T11:24:07;28.92;;;6.95;;
34988;SDS011;21192;40.182;44.516;2023-02-22T11:29:50;28.05;;;8.48;;
34988;SDS011;21192;40.182;44.516;2023-02-22T11:32:40;19.02;;;6.15;;
34988;SDS011;21192;40.182;44.516;2023-02-22T11:34:48;35.65;;;7.50;;
34988;SDS011;21192;40.182;44.516;2023-02-22T11:40:03;26.25;;;5.72;;
34988;SDS011;21192;40.182;44.516;2023-02-22T11:42:37;15.95;;;5.40;;
34988;SDS011;21192;40.182;44.516;2023-02-22T11:45:08;20.60;;;5.10;;
34988;SDS011;21192;40.182;44.516;2023-02-22T11:47:56;16.65;;;4.53;;
34988;SDS011;21192;40.182;44.516;2023-02-22T11:56:12;22.33;;;5.50;;
34988;SDS011;21192;40.182;44.516;2023-02-22T12:06:55;68.78;;;9.35;;
34988;SDS011;21192;40.182;44.516;2023-02-22T12:15:02;15.52;;;4.80;;
34988;SDS011;21192;40.182;44.516;2023-02-22T12:20:45;14.23;;;5.38;;
34988;SDS011;21192;40.182;44.516;2023-02-22T12:26:17;14.00;;;4.88;;
34988;SDS011;21192;40.182;44.516;2023-02-22T12:31:22;19.08;;;5.40;;
34988;SDS011;21192;40.182;44.516;2023-02-22T12:34:15;25.70;;;6.25;;
34988;SDS011;21192;40.182;44.516;2023-02-22T12:42:44;30.63;;;6.85;;
34988;SDS011;21192;40.182;44.516;2023-02-22T12:45:16;25.35;;;5.55;;
34988;SDS011;21192;40.182;44.516;2023-02-22T12:50:52;43.40;;;9.07;;
34988;SDS011;21192;40.182;44.516;2023-02-22T12:53:27;34.47;;;8.30;;
34988;SDS011;21192;40.182;44.516;2023-02-22T13:01:48;38.97;;;7.97;;
34988;SDS011;21192;40.182;44.516;2023-02-22T13:04:26;28.55;;;7.75;;
34988;SDS011;21192;40.182;44.516;2023-02-22T13:07:17;59.40;;;9.13;;
34988;SDS011;21192;40.182;44.516;2023-02-22T13:09:54;47.83;;;7.75;;
34988;SDS011;21192;40.182;44.516;2023-02-22T13:18:18;43.33;;;9.32;;
34988;SDS011;21192;40.182;44.516;2023-02-22T13:23:52;60.70;;;10.55;;
34988;SDS011;21192;40.182;44.516;2023-02-22T13:26:34;52.63;;;10.82;;
34988;SDS011;21192;40.182;44.516;2023-02-22T13:29:12;58.97;;;11.35;;
34988;SDS011;21192;40.182;44.516;2023-02-22T13:34:47;48.15;;;11.35;;
34988;SDS011;21192;40.182;44.516;2023-02-22T13:50:48;47.65;;;10.13;;
34988;SDS011;21192;40.182;44.516;2023-02-22T13:56:51;42.97;;;10.02;;
34988;SDS011;21192;40.182;44.516;2023-02-22T14:01:53;41.97;;;10.00;;
34988;SDS011;21192;40.182;44.516;2023-02-22T14:06:52;37.25;;;10.50;;
34988;SDS011;21192;40.182;44.516;2023-02-22T14:17:47;32.78;;;10.00;;
34988;SDS011;21192;40.182;44.516;2023-02-22T14:22:54;27.33;;;9.60;;
34988;SDS011;21192;40.182;44.516;2023-02-22T14:25:34;28.33;;;10.45;;
34988;SDS011;21192;40.182;44.516;2023-02-22T14:28:08;28.35;;;10.45;;
34988;SDS011;21192;40.182;44.516;2023-02-22T14:33:49;35.25;;;12.15;;
34988;SDS011;21192;40.182;44.516;2023-02-22T14:36:19;39.92;;;10.57;;
34988;SDS011;21192;40.182;44.516;2023-02-22T14:38:52;42.05;;;11.55;;
34988;SDS011;21192;40.182;44.516;2023-02-22T14:41:23;39.28;;;9.88;;
34988;SDS011;21192;40.182;44.516;2023-02-22T14:43:54;41.72;;;9.45;;
34988;SDS011;21192;40.182;44.516;2023-02-22T14:46:22;34.08;;;11.00;;
34988;SDS011;21192;40.182;44.516;2023-02-22T14:48:53;33.80;;;10.05;;
34988;SDS011;21192;40.182;44.516;2023-02-22T14:51:28;44.55;;;10.98;;
34988;SDS011;21192;40.182;44.516;2023-02-22T14:54:06;57.63;;;12.10;;
34988;SDS011;21192;40.182;44.516;2023-02-22T14:56:57;54.00;;;11.82;;
34988;SDS011;21192;40.182;44.516;2023-02-22T15:02:48;52.40;;;12.93;;
34988;SDS011;21192;40.182;44.516;2023-02-22T15:05:17;47.55;;;12.40;;
34988;SDS011;21192;40.182;44.516;2023-02-22T15:07:52;46.50;;;10.48;;
34988;SDS011;21192;40.182;44.516;2023-02-22T15:13:02;43.13;;;9.88;;
34988;SDS011;21192;40.182;44.516;2023-02-22T15:15:36;37.80;;;10.15;;
34988;SDS011;21192;40.182;44.516;2023-02-22T15:18:07;41.50;;;12.30;;
34988;SDS011;21192;40.182;44.516;2023-02-22T15:20:46;41.25;;;10.63;;
34988;SDS011;21192;40.182;44.516;2023-02-22T15:23:19;47.03;;;12.20;;
34988;SDS011;21192;40.182;44.516;2023-02-22T15:25:48;35.33;;;9.88;;
34988;SDS011;21192;40.182;44.516;2023-02-22T15:28:14;48.45;;;10.10;;
34988;SDS011;21192;40.182;44.516;2023-02-22T15:30:42;34.22;;;10.25;;
34988;SDS011;21192;40.182;44.516;2023-02-22T15:33:09;29.38;;;8.15;;
34988;SDS011;21192;40.182;44.516;2023-02-22T15:35:40;32.17;;;9.35;;
34988;SDS011;21192;40.182;44.516;2023-02-22T15:40:35;28.75;;;9.43;;
34988;SDS011;21192;40.182;44.516;2023-02-22T15:43:04;33.55;;;10.40;;
34988;SDS011;21192;40.182;44.516;2023-02-22T15:45:34;26.05;;;10.05;;
34988;SDS011;21192;40.182;44.516;2023-02-22T15:48:07;28.25;;;9.45;;
34988;SDS011;21192;40.182;44.516;2023-02-22T15:50:34;27.58;;;8.98;;
34988;SDS011;21192;40.182;44.516;2023-02-22T15:53:07;23.75;;;9.25;;
34988;SDS011;21192;40.182;44.516;2023-02-22T15:56:04;25.40;;;10.77;;
34988;SDS011;21192;40.182;44.516;2023-02-22T15:58:35;31.63;;;13.80;;
34988;SDS011;21192;40.182;44.516;2023-02-22T16:01:06;26.42;;;11.60;;
34988;SDS011;21192;40.182;44.516;2023-02-22T16:03:49;26.50;;;11.00;;
34988;SDS011;21192;40.182;44.516;2023-02-22T16:08:58;24.30;;;11.32;;
34988;SDS011;21192;40.182;44.516;2023-02-22T16:11:34;29.75;;;11.18;;
34988;SDS011;21192;40.182;44.516;2023-02-22T16:17:08;25.08;;;10.77;;
34988;SDS011;21192;40.182;44.516;2023-02-22T16:19:59;24.98;;;7.93;;
34988;SDS011;21192;40.182;44.516;2023-02-22T16:22:33;23.60;;;8.25;;
34988;SDS011;21192;40.182;44.516;2023-02-22T16:27:46;25.70;;;9.50;;
34988;SDS011;21192;40.182;44.516;2023-02-22T16:32:47;26.02;;;9.70;;
34988;SDS011;21192;40.182;44.516;2023-02-22T16:35:13;24.15;;;8.57;;
34988;SDS011;21192;40.182;44.516;2023-02-22T16:37:50;25.95;;;8.07;;
34988;SDS011;21192;40.182;44.516;2023-02-22T16:40:20;26.17;;;10.23;;
34988;SDS011;21192;40.182;44.516;2023-02-22T16:42:56;25.98;;;8.90;;
34988;SDS011;21192;40.182;44.516;2023-02-22T16:45:24;19.10;;;8.77;;
34988;SDS011;21192;40.182;44.516;2023-02-22T16:47:49;20.77;;;9.30;;
34988;SDS011;21192;40.182;44.516;2023-02-22T16:50:17;28.48;;;9.40;;
34988;SDS011;21192;40.182;44.516;2023-02-22T16:52:44;27.55;;;10.07;;
34988;SDS011;21192;40.182;44.516;2023-02-22T16:55:13;24.75;;;9.70;;
34988;SDS011;21192;40.182;44.516;2023-02-22T16:57:41;25.90;;;10.80;;
34988;SDS011;21192;40.182;44.516;2023-02-22T17:00:15;26.73;;;11.02;;
34988;SDS011;21192;40.182;44.516;2023-02-22T17:02:43;20.20;;;10.55;;
34988;SDS011;21192;40.182;44.516;2023-02-22T17:05:12;28.98;;;9.77;;
34988;SDS011;21192;40.182;44.516;2023-02-22T17:07:39;20.48;;;8.40;;
34988;SDS011;21192;40.182;44.516;2023-02-22T17:10:06;22.13;;;9.05;;
34988;SDS011;21192;40.182;44.516;2023-02-22T17:12:38;19.63;;;8.90;;
34988;SDS011;21192;40.182;44.516;2023-02-22T17:15:11;19.33;;;7.97;;
34988;SDS011;21192;40.182;44.516;2023-02-22T17:17:49;21.58;;;9.30;;
34988;SDS011;21192;40.182;44.516;2023-02-22T17:20:16;26.67;;;11.25;;
34988;SDS011;21192;40.182;44.516;2023-02-22T17:22:54;24.63;;;7.95;;
34988;SDS011;21192;40.182;44.516;2023-02-22T17:25:25;23.70;;;10.93;;
34988;SDS011;21192;40.182;44.516;2023-02-22T17:28:02;18.50;;;9.15;;
34988;SDS011;21192;40.182;44.516;2023-02-22T17:30:29;15.80;;;8.25;;
34988;SDS011;21192;40.182;44.516;2023-02-22T17:32:57;22.20;;;8.73;;
34988;SDS011;21192;40.182;44.516;2023-02-22T17:35:28;18.33;;;9.40;;
34988;SDS011;21192;40.182;44.516;2023-02-22T17:37:59;18.63;;;9.65;;
34988;SDS011;21192;40.182;44.516;2023-02-22T17:40:26;18.25;;;8.50;;
34988;SDS011;21192;40.182;44.516;2023-02-22T17:42:53;19.05;;;10.02;;